Time;durP1;ratioP1;P1;durP2;ratioP2;P2;SDS_P1;SDS_P2;PMS_P1;PMS_P2;Temp;Humidity;BMP_temperature;BMP_pressure;BME280_temperature;BME280_humidity;BME280_pressure;Samples;Min_cycle;Max_cycle;Signal;HPM_P1;HPM_P2
2021/10/03 00:01:02;;;;;;;4.22;2.42;;;15.80;71.80;;;;;;5044702;28;20048;-71
2021/10/03 00:03:27;;;;;;;3.85;2.70;;;15.80;72.20;;;;;;5045525;28;20029;-72
2021/10/03 00:05:58;;;;;;;3.50;2.50;;;15.80;72.20;;;;;;5044572;28;20049;-71
2021/10/03 00:08:25;;;;;;;6.10;2.90;;;15.70;72.70;;;;;;5044657;28;20017;-72
2021/10/03 00:10:51;;;;;;;3.47;2.42;;;15.70;72.90;;;;;;5045238;28;20025;-71
2021/10/03 00:13:17;;;;;;;6.03;2.63;;;15.70;73.30;;;;;;5060737;28;20036;-71
2021/10/03 00:15:43;;;;;;;3.42;2.67;;;15.80;73.00;;;;;;5044386;28;20386;-71
2021/10/03 00:18:09;;;;;;;4.03;2.70;;;15.70;73.10;;;;;;5044277;28;20026;-71
2021/10/03 00:20:36;;;;;;;4.27;3.13;;;15.70;73.50;;;;;;5045474;28;20037;-72
2021/10/03 00:23:02;;;;;;;4.85;2.45;;;15.70;73.70;;;;;;5027729;28;20288;-71
2021/10/03 00:25:28;;;;;;;4.15;2.50;;;15.70;73.30;;;;;;5080554;22;20155;-69
2021/10/03 00:27:54;;;;;;;5.43;4.13;;;15.70;73.40;;;;;;5065141;28;20033;-69
2021/10/03 00:30:21;;;;;;;5.30;2.90;;;15.60;73.50;;;;;;5065196;28;20025;-69
2021/10/03 00:32:47;;;;;;;4.97;3.15;;;15.60;73.90;;;;;;5065088;28;20028;-72
2021/10/03 00:35:13;;;;;;;4.50;3.30;;;15.60;74.20;;;;;;5064790;28;20024;-69
2021/10/03 00:37:39;;;;;;;4.47;3.00;;;15.60;74.10;;;;;;5064907;28;20044;-69
2021/10/03 00:40:06;;;;;;;5.70;3.42;;;15.60;74.20;;;;;;5047285;28;20013;-69
2021/10/03 00:42:32;;;;;;;3.75;2.65;;;15.60;74.30;;;;;;5063874;28;20029;-69
2021/10/03 00:44:58;;;;;;;3.67;2.87;;;15.60;74.60;;;;;;5046884;28;20386;-69
2021/10/03 00:47:23;;;;;;;5.27;3.23;;;15.60;74.60;;;;;;5064873;28;20106;-69
2021/10/03 00:49:49;;;;;;;4.57;2.80;;;15.60;74.70;;;;;;5063797;28;20025;-69
2021/10/03 00:52:15;;;;;;;5.30;2.90;;;15.60;75.00;;;;;;5047074;28;20024;-69
2021/10/03 00:54:41;;;;;;;3.83;3.03;;;15.50;75.10;;;;;;5064100;28;20071;-69
2021/10/03 00:57:07;;;;;;;3.80;3.00;;;15.50;75.40;;;;;;5064670;28;20196;-70
2021/10/03 00:59:35;;;;;;;5.13;2.53;;;15.50;75.50;;;;;;5063584;28;20016;-69
2021/10/03 01:02:02;;;;;;;5.35;3.47;;;15.50;75.60;;;;;;5047261;28;20017;-69
2021/10/03 01:04:27;;;;;;;;;;;15.50;75.90;;;;;;5063560;28;20020;-69
2021/10/03 01:06:53;;;;;;;4.18;3.22;;;15.50;76.20;;;;;;5064442;28;19905;-69
2021/10/03 01:09:20;;;;;;;5.10;3.43;;;15.50;76.40;;;;;;5046717;28;20016;-68
2021/10/03 01:11:46;;;;;;;;;;;15.50;76.30;;;;;;5063789;28;20017;-69
2021/10/03 01:14:12;;;;;;;5.53;3.55;;;15.50;76.30;;;;;;5079506;28;19905;-69
2021/10/03 01:16:39;;;;;;;4.23;3.43;;;15.40;76.80;;;;;;5063282;28;20025;-68
2021/10/03 01:19:05;;;;;;;6.07;3.30;;;15.40;77.30;;;;;;5063052;28;20031;-69
2021/10/03 01:21:32;;;;;;;4.40;3.20;;;15.40;77.50;;;;;;5062990;28;20320;-70
2021/10/03 01:23:58;;;;;;;5.32;2.90;;;15.30;77.40;;;;;;5062647;28;20017;-70
2021/10/03 01:26:24;;;;;;;4.97;3.80;;;15.20;77.30;;;;;;5062165;28;20032;-69
2021/10/03 01:28:53;;;;;;;6.47;3.80;;;15.30;77.60;;;;;;5063012;28;20031;-69
2021/10/03 01:31:26;;;;;;;6.75;3.90;;;15.10;77.70;;;;;;5046606;28;20047;-69
2021/10/03 01:33:52;;;;;;;4.68;3.30;;;15.20;77.90;;;;;;5063715;28;20070;-69
2021/10/03 01:36:20;;;;;;;4.47;3.07;;;15.20;77.80;;;;;;5064050;28;20100;-69
2021/10/03 01:38:45;;;;;;;5.53;2.95;;;15.20;78.00;;;;;;5063809;28;20024;-69
2021/10/03 01:41:11;;;;;;;4.80;3.40;;;15.20;78.20;;;;;;5063570;28;20342;-69
2021/10/03 01:43:37;;;;;;;5.13;3.67;;;15.20;78.50;;;;;;5062968;28;20037;-70
2021/10/03 01:46:03;;;;;;;5.07;3.20;;;15.20;78.40;;;;;;5062577;28;20094;-69
2021/10/03 01:48:29;;;;;;;5.17;3.47;;;15.10;78.80;;;;;;5063748;28;20025;-69
2021/10/03 01:50:58;;;;;;;4.90;3.40;;;15.10;79.10;;;;;;5062757;28;20048;-69
2021/10/03 01:53:36;;;;;;;5.82;3.67;;;15.10;78.80;;;;;;5062206;28;20470;-69
2021/10/03 01:56:04;;;;;;;5.72;3.72;;;15.10;78.90;;;;;;5045680;28;20062;-70
2021/10/03 01:58:32;;;;;;;6.35;4.25;;;15.10;79.10;;;;;;5062285;28;20116;-69
2021/10/03 02:01:02;;;;;;;6.72;4.07;;;15.00;79.50;;;;;;5063597;28;20037;-69
2021/10/03 02:03:28;;;;;;;4.57;4.00;;;15.00;79.70;;;;;;5062220;28;20370;-69
2021/10/03 02:05:54;;;;;;;8.57;4.17;;;15.00;79.30;;;;;;5063281;28;20024;-69
2021/10/03 02:08:20;;;;;;;3.93;3.33;;;15.00;79.70;;;;;;5063441;28;20029;-69
2021/10/03 02:10:50;;;;;;;4.33;3.67;;;15.00;80.00;;;;;;5063157;28;20025;-69
2021/10/03 02:13:18;;;;;;;6.55;4.20;;;15.00;79.50;;;;;;5062893;28;20261;-69
2021/10/03 02:15:45;;;;;;;6.93;4.15;;;15.00;79.50;;;;;;5063310;28;20039;-69
2021/10/03 02:18:12;;;;;;;5.45;3.45;;;15.00;79.90;;;;;;5062051;28;20336;-69
2021/10/03 02:20:39;;;;;;;6.45;3.92;;;15.00;80.10;;;;;;5062071;28;20044;-69
2021/10/03 02:23:06;;;;;;;6.10;4.35;;;15.00;80.20;;;;;;5062815;28;20017;-70
2021/10/03 02:25:32;;;;;;;7.68;4.25;;;15.00;80.00;;;;;;5060317;28;20070;-69
2021/10/03 02:27:58;;;;;;;6.40;4.00;;;14.90;80.60;;;;;;5061775;28;20231;-69
2021/10/03 02:30:24;;;;;;;7.00;4.50;;;14.90;80.70;;;;;;5063083;28;20052;-69
2021/10/03 02:32:50;;;;;;;5.27;3.70;;;14.90;80.40;;;;;;5062947;28;20219;-69
2021/10/03 02:35:16;;;;;;;6.83;4.50;;;14.90;80.10;;;;;;5062629;28;20036;-69
2021/10/03 02:37:42;;;;;;;5.95;4.20;;;15.00;80.20;;;;;;5061635;28;20055;-69
2021/10/03 02:40:13;;;;;;;7.40;4.93;;;14.90;80.60;;;;;;5061537;28;20025;-69
2021/10/03 02:42:39;;;;;;;10.30;5.07;;;14.90;80.70;;;;;;5062818;28;20055;-69
2021/10/03 02:45:07;;;;;;;7.00;4.97;;;14.90;80.40;;;;;;5044779;28;20088;-69
2021/10/03 02:47:33;;;;;;;9.38;5.63;;;14.90;80.40;;;;;;5061581;28;20029;-69
2021/10/03 02:49:59;;;;;;;8.13;4.47;;;14.90;80.60;;;;;;5062749;28;20024;-69
2021/10/03 02:52:25;;;;;;;8.80;5.10;;;14.90;80.50;;;;;;5062618;28;20317;-69
2021/10/03 02:54:51;;;;;;;6.83;4.70;;;14.90;80.90;;;;;;5060731;28;20025;-69
2021/10/03 02:57:16;;;;;;;7.80;5.07;;;14.80;81.00;;;;;;5062522;28;20052;-70
2021/10/03 02:59:42;;;;;;;5.93;4.83;;;14.90;80.90;;;;;;5062232;28;20028;-70
2021/10/03 03:02:08;;;;;;;6.43;4.97;;;14.90;80.90;;;;;;5061665;28;20032;-69
2021/10/03 03:04:34;;;;;;;8.67;5.20;;;14.90;80.80;;;;;;5061291;28;20028;-69
2021/10/03 03:07:00;;;;;;;7.63;4.90;;;14.90;80.80;;;;;;5061512;28;20412;-69
2021/10/03 03:09:25;;;;;;;8.57;5.17;;;14.90;80.90;;;;;;5061479;28;20025;-69
2021/10/03 03:11:51;;;;;;;11.60;5.80;;;14.90;80.90;;;;;;5061264;28;20042;-69
2021/10/03 03:14:17;;;;;;;8.00;5.00;;;14.90;81.10;;;;;;5061069;28;20031;-69
2021/10/03 03:16:48;;;;;;;9.37;5.10;;;14.80;81.60;;;;;;5060309;28;20025;-69
2021/10/03 03:19:14;;;;;;;7.43;5.10;;;14.80;81.80;;;;;;5060107;28;20084;-69
2021/10/03 03:21:40;;;;;;;9.17;5.47;;;14.80;81.40;;;;;;5060243;28;20036;-69
2021/10/03 03:24:06;;;;;;;8.87;5.80;;;14.80;80.80;;;;;;5059943;28;20342;-69
2021/10/03 03:26:33;;;;;;;8.10;5.33;;;14.80;81.10;;;;;;5059704;28;20445;-69
2021/10/03 03:28:59;;;;;;;8.18;5.25;;;14.80;81.60;;;;;;5060452;28;20319;-69
2021/10/03 03:31:25;;;;;;;9.07;5.47;;;14.80;81.80;;;;;;5059232;28;20043;-69
2021/10/03 03:33:51;;;;;;;8.10;5.40;;;14.80;81.30;;;;;;5060130;28;20033;-69
2021/10/03 03:36:16;;;;;;;9.37;5.87;;;14.80;81.00;;;;;;5060150;28;20032;-69
2021/10/03 03:38:43;;;;;;;10.00;6.13;;;14.80;81.10;;;;;;5060293;28;20092;-69
2021/10/03 03:41:09;;;;;;;;;;;14.80;81.20;;;;;;5060463;28;20088;-69
2021/10/03 03:43:35;;;;;;;10.30;5.90;;;14.80;81.00;;;;;;5060015;28;19904;-69
2021/10/03 03:46:02;;;;;;;9.10;5.63;;;14.80;81.00;;;;;;5060208;28;20323;-69
2021/10/03 03:48:27;;;;;;;8.65;5.82;;;14.80;80.90;;;;;;5059173;28;20017;-69
2021/10/03 03:50:53;;;;;;;9.50;6.20;;;14.80;81.40;;;;;;5059831;28;20200;-69
2021/10/03 03:53:19;;;;;;;11.10;5.93;;;14.70;80.90;;;;;;5060040;28;20035;-68
2021/10/03 03:55:45;;;;;;;8.17;5.37;;;14.70;80.90;;;;;;5058093;28;20232;-69
2021/10/03 03:58:10;;;;;;;7.73;5.50;;;14.70;80.80;;;;;;5060105;28;20036;-69
2021/10/03 04:00:36;;;;;;;11.90;6.60;;;14.80;80.70;;;;;;5059608;28;20044;-69
2021/10/03 04:03:02;;;;;;;8.43;6.00;;;14.80;81.20;;;;;;5059739;28;20032;-69
2021/10/03 04:05:28;;;;;;;8.20;6.03;;;14.70;81.20;;;;;;5060092;28;20025;-68
2021/10/03 04:07:54;;;;;;;10.63;6.13;;;14.70;81.30;;;;;;5063472;28;20296;-68
2021/10/03 04:10:19;;;;;;;10.10;6.03;;;14.70;80.60;;;;;;5061947;28;20083;-68
2021/10/03 04:12:45;;;;;;;10.03;5.30;;;14.80;80.50;;;;;;5053348;28;20044;-68
2021/10/03 04:15:11;;;;;;;9.57;6.00;;;14.80;80.50;;;;;;5062868;28;20048;-69
2021/10/03 04:17:37;;;;;;;11.17;6.30;;;14.80;80.70;;;;;;5063192;28;20059;-68
2021/10/03 04:20:05;;;;;;;8.60;5.60;;;14.80;81.10;;;;;;5063259;28;20085;-68
2021/10/03 04:22:31;;;;;;;10.43;5.85;;;14.70;80.30;;;;;;5063487;28;20219;-69
2021/10/03 04:24:56;;;;;;;7.77;4.90;;;14.70;80.20;;;;;;5004181;28;1176056;-69
2021/10/03 04:27:22;;;;;;;9.27;5.93;;;14.70;80.20;;;;;;5064566;28;20029;-69
2021/10/03 04:29:48;;;;;;;11.57;5.77;;;14.70;80.60;;;;;;5064578;28;20049;-71
2021/10/03 04:32:14;;;;;;;11.33;6.30;;;14.80;80.00;;;;;;5063226;28;20219;-69
2021/10/03 04:34:40;;;;;;;8.53;5.70;;;14.70;80.10;;;;;;5062951;28;20028;-68
2021/10/03 04:37:06;;;;;;;8.70;5.78;;;14.80;80.30;;;;;;5064408;28;20219;-68
2021/10/03 04:39:32;;;;;;;9.37;5.80;;;14.80;79.60;;;;;;5064238;28;20092;-68
2021/10/03 04:41:59;;;;;;;9.43;5.60;;;14.70;79.70;;;;;;5063853;28;20050;-69
2021/10/03 04:44:24;;;;;;;9.52;5.47;;;14.70;80.10;;;;;;5062712;28;20044;-68
2021/10/03 04:46:50;;;;;;;7.97;5.80;;;14.70;80.00;;;;;;5062938;28;20025;-69
2021/10/03 04:49:16;;;;;;;8.07;5.33;;;14.70;80.20;;;;;;5064191;28;20059;-68
2021/10/03 04:51:42;;;;;;;8.63;5.63;;;14.70;80.20;;;;;;5064046;28;20230;-69
2021/10/03 04:54:08;;;;;;;7.73;5.10;;;14.70;80.20;;;;;;5063130;28;20031;-68
2021/10/03 04:56:34;;;;;;;9.82;6.32;;;14.70;80.20;;;;;;5063684;28;20059;-69
2021/10/03 04:58:59;;;;;;;10.97;6.23;;;14.70;80.10;;;;;;5063259;28;20184;-69
2021/10/03 05:01:25;;;;;;;9.67;6.10;;;14.70;80.00;;;;;;5063650;28;20017;-68
2021/10/03 05:03:51;;;;;;;10.13;6.90;;;14.70;80.20;;;;;;5063507;28;20017;-69
2021/10/03 05:06:17;;;;;;;9.57;5.60;;;14.70;79.80;;;;;;5063538;28;20017;-68
2021/10/03 05:08:43;;;;;;;12.43;6.87;;;14.70;79.50;;;;;;5062471;28;20070;-68
2021/10/03 05:11:09;;;;;;;11.63;6.10;;;14.70;79.30;;;;;;5063335;28;20021;-68
2021/10/03 05:13:35;;;;;;;10.07;5.90;;;14.70;79.00;;;;;;5063224;28;20092;-68
2021/10/03 05:16:00;;;;;;;10.07;6.03;;;14.70;79.30;;;;;;5063452;28;20032;-69
2021/10/03 05:18:26;;;;;;;10.13;6.43;;;14.70;78.80;;;;;;5061181;28;20024;-68
2021/10/03 05:20:52;;;;;;;8.53;5.83;;;14.70;78.80;;;;;;5062453;28;20075;-68
2021/10/03 05:23:18;;;;;;;7.40;5.87;;;14.60;79.70;;;;;;5061923;28;20032;-69
2021/10/03 05:25:44;;;;;;;9.70;6.20;;;14.60;79.50;;;;;;5062852;28;20024;-68
2021/10/03 05:28:10;;;;;;;11.13;6.27;;;14.60;79.70;;;;;;5061995;28;20028;-68
2021/10/03 05:30:36;;;;;;;10.93;6.47;;;14.60;79.50;;;;;;5062343;28;20084;-69
2021/10/03 05:33:02;;;;;;;8.83;6.80;;;14.60;79.30;;;;;;5062939;28;20033;-68
2021/10/03 05:35:28;;;;;;;8.83;5.77;;;14.50;79.00;;;;;;5063145;28;20057;-68
2021/10/03 05:37:53;;;;;;;12.33;6.80;;;14.50;79.20;;;;;;5061889;28;20092;-69
2021/10/03 05:40:19;;;;;;;10.20;6.67;;;14.50;79.40;;;;;;5061710;28;20025;-68
2021/10/03 05:42:45;;;;;;;10.37;6.77;;;14.50;79.50;;;;;;5062837;28;20021;-69
2021/10/03 05:45:11;;;;;;;10.00;5.90;;;14.50;79.30;;;;;;5062113;28;20025;-69
2021/10/03 05:47:37;;;;;;;10.57;6.37;;;14.50;78.90;;;;;;5061639;28;20315;-69
2021/10/03 05:50:05;;;;;;;14.90;7.27;;;14.50;79.40;;;;;;5062718;28;20084;-68
2021/10/03 05:52:31;;;;;;;9.45;5.65;;;14.50;79.40;;;;;;5061528;28;20027;-69
2021/10/03 05:54:57;;;;;;;8.77;5.73;;;14.50;79.40;;;;;;5060504;28;20020;-68
2021/10/03 05:57:22;;;;;;;9.77;5.73;;;14.50;78.80;;;;;;5060959;28;20319;-68
2021/10/03 05:59:48;;;;;;;11.63;6.50;;;14.50;78.80;;;;;;5062180;28;20063;-69
2021/10/03 06:02:14;;;;;;;11.03;6.43;;;14.50;78.70;;;;;;5062444;28;20029;-68
2021/10/03 06:04:40;;;;;;;12.13;6.37;;;14.50;79.00;;;;;;5062153;28;20530;-68
2021/10/03 06:07:05;;;;;;;12.20;5.83;;;14.60;79.70;;;;;;5062487;28;20028;-69
2021/10/03 06:09:31;;;;;;;7.87;5.13;;;14.60;79.80;;;;;;5062266;28;20036;-69
2021/10/03 06:11:57;;;;;;;12.13;6.60;;;14.60;78.90;;;;;;5060865;28;20086;-68
2021/10/03 06:14:23;;;;;;;8.73;5.83;;;14.60;78.80;;;;;;5060749;28;20315;-68
2021/10/03 06:16:49;;;;;;;8.67;5.57;;;14.70;78.30;;;;;;5062554;28;20052;-69
2021/10/03 06:19:15;;;;;;;11.03;5.33;;;14.70;78.00;;;;;;5062013;28;20029;-68
2021/10/03 06:21:41;;;;;;;8.55;5.47;;;14.80;78.40;;;;;;5061056;28;20289;-69
2021/10/03 06:24:07;;;;;;;9.63;6.10;;;14.70;77.50;;;;;;5061777;28;20028;-69
2021/10/03 06:26:34;;;;;;;9.27;5.30;;;14.80;78.00;;;;;;5098734;22;20041;-76
2021/10/03 06:28:59;;;;;;;9.05;5.88;;;14.80;78.00;;;;;;5063440;28;20323;-73
2021/10/03 06:31:25;;;;;;;11.50;6.10;;;14.90;77.30;;;;;;5066126;28;20039;-73
2021/10/03 06:33:51;;;;;;;9.30;5.60;;;15.00;76.60;;;;;;5065229;28;20113;-72
2021/10/03 06:36:17;;;;;;;8.43;5.43;;;15.00;76.40;;;;;;5062171;28;20029;-72
2021/10/03 06:38:43;;;;;;;10.13;6.20;;;15.10;75.20;;;;;;5062901;28;20032;-73
2021/10/03 06:41:08;;;;;;;8.90;6.00;;;15.10;76.00;;;;;;5062995;28;20083;-70
2021/10/03 06:43:38;;;;;;;10.67;6.10;;;15.10;75.10;;;;;;5062913;28;20032;-70
2021/10/03 06:46:08;;;;;;;10.02;6.18;;;15.20;74.70;;;;;;5063018;28;20021;-70
2021/10/03 06:48:34;;;;;;;9.95;5.30;;;15.20;74.90;;;;;;5045393;28;20200;-69
2021/10/03 06:50:59;;;;;;;10.27;6.13;;;15.30;75.20;;;;;;5062875;28;20052;-69
2021/10/03 06:53:26;;;;;;;10.30;6.37;;;15.30;75.10;;;;;;5062791;28;20070;-69
2021/10/03 06:55:53;;;;;;;7.25;5.25;;;15.40;74.80;;;;;;5044411;28;20039;-69
2021/10/03 06:58:19;;;;;;;8.73;5.43;;;15.50;75.30;;;;;;5045646;28;20029;-70
2021/10/03 07:00:45;;;;;;;9.93;5.97;;;15.60;73.70;;;;;;5062697;28;20210;-70
2021/10/03 07:03:11;;;;;;;10.13;6.30;;;15.70;72.50;;;;;;5062466;28;20031;-71
2021/10/03 07:05:37;;;;;;;10.33;5.53;;;15.70;72.50;;;;;;5062593;28;20044;-71
2021/10/03 07:08:05;;;;;;;8.10;5.30;;;15.70;72.00;;;;;;5062648;28;20032;-70
2021/10/03 07:10:32;;;;;;;10.30;5.82;;;15.80;72.10;;;;;;5061165;28;20036;-71
2021/10/03 07:12:57;;;;;;;8.57;5.40;;;15.90;72.50;;;;;;5044654;28;20066;-71
2021/10/03 07:15:23;;;;;;;10.73;6.17;;;15.90;72.30;;;;;;5062555;28;20032;-71
2021/10/03 07:17:49;;;;;;;9.07;5.87;;;15.90;71.90;;;;;;5062422;28;20032;-71
2021/10/03 07:20:15;;;;;;;7.97;5.20;;;16.00;70.50;;;;;;5062429;28;20251;-71
2021/10/03 07:22:41;;;;;;;8.68;5.28;;;16.10;70.20;;;;;;5061291;28;20027;-71
2021/10/03 07:25:08;;;;;;;8.00;5.27;;;16.10;68.40;;;;;;5061860;28;20037;-71
2021/10/03 07:27:33;;;;;;;9.40;5.25;;;16.20;68.40;;;;;;5044879;28;20071;-71
2021/10/03 07:29:59;;;;;;;7.23;4.63;;;16.20;68.50;;;;;;5062530;28;20025;-71
2021/10/03 07:32:25;;;;;;;10.17;6.27;;;16.20;69.50;;;;;;5061267;28;20048;-71
2021/10/03 07:34:51;;;;;;;7.97;5.13;;;16.20;70.10;;;;;;5062050;28;20032;-71
2021/10/03 07:37:17;;;;;;;8.60;5.50;;;16.30;67.50;;;;;;5062244;28;20028;-71
2021/10/03 07:39:43;;;;;;;7.17;5.33;;;16.30;68.50;;;;;;5062187;28;20297;-71
2021/10/03 07:42:09;;;;;;;8.23;4.93;;;16.30;68.50;;;;;;5064945;28;20116;-71
2021/10/03 07:44:35;;;;;;;8.20;5.50;;;16.40;67.80;;;;;;5065783;28;20268;-71
2021/10/03 07:47:00;;;;;;;6.43;4.70;;;16.50;67.50;;;;;;5065049;28;20048;-71
2021/10/03 07:49:26;;;;;;;8.40;5.27;;;16.50;66.10;;;;;;5066089;28;20188;-70
2021/10/03 07:51:52;;;;;;;7.13;5.00;;;16.60;66.50;;;;;;5066099;28;20048;-71
2021/10/03 07:54:18;;;;;;;7.53;4.83;;;16.70;66.30;;;;;;5065732;28;20021;-71
2021/10/03 07:56:44;;;;;;;7.77;4.97;;;16.80;66.00;;;;;;5065137;28;20029;-71
2021/10/03 07:59:10;;;;;;;9.40;6.23;;;16.90;64.80;;;;;;5065946;28;20025;-71
2021/10/03 08:01:35;;;;;;;8.07;4.90;;;17.00;65.70;;;;;;5065952;28;20435;-71
2021/10/03 08:04:02;;;;;;;8.83;5.20;;;17.10;65.30;;;;;;5065507;28;20028;-71
2021/10/03 08:06:28;;;;;;;8.07;4.38;;;17.20;64.50;;;;;;5065649;28;20218;-71
2021/10/03 08:08:55;;;;;;;8.23;4.63;;;17.20;64.80;;;;;;5065691;28;20044;-71
2021/10/03 08:11:21;;;;;;;5.95;4.60;;;17.30;64.70;;;;;;5064418;28;20306;-71
2021/10/03 08:13:48;;;;;;;9.70;5.13;;;17.50;63.10;;;;;;5064255;28;20025;-71
2021/10/03 08:16:14;;;;;;;7.53;4.90;;;17.70;61.70;;;;;;5031326;28;20025;-71
2021/10/03 08:18:39;;;;;;;8.50;5.30;;;17.80;60.00;;;;;;5065375;28;20036;-70
2021/10/03 08:21:05;;;;;;;6.10;4.10;;;17.80;59.90;;;;;;5065530;28;20016;-69
2021/10/03 08:23:31;;;;;;;7.83;4.93;;;17.80;59.80;;;;;;5065052;28;20319;-70
2021/10/03 08:25:57;;;;;;;5.83;4.20;;;17.90;59.30;;;;;;5064968;28;20258;-71
2021/10/03 08:28:24;;;;;;;6.20;4.43;;;17.90;61.40;;;;;;5064309;28;20028;-71
2021/10/03 08:30:49;;;;;;;6.75;4.22;;;17.90;59.50;;;;;;5047842;28;20021;-70
2021/10/03 08:33:15;;;;;;;7.17;4.50;;;18.00;58.70;;;;;;5065024;28;20096;-71
2021/10/03 08:35:41;;;;;;;5.50;4.27;;;18.00;59.20;;;;;;5065096;28;20052;-71
2021/10/03 08:38:07;;;;;;;9.73;5.53;;;18.10;58.60;;;;;;5065067;28;20059;-71
2021/10/03 08:40:33;;;;;;;8.27;4.68;;;18.10;58.20;;;;;;5047473;28;20219;-71
2021/10/03 08:42:59;;;;;;;9.77;7.23;;;18.20;59.30;;;;;;5064673;28;20025;-71
2021/10/03 08:45:25;;;;;;;6.87;4.53;;;18.20;59.00;;;;;;5063855;28;20016;-71
2021/10/03 08:47:50;;;;;;;6.50;4.23;;;18.30;58.40;;;;;;5063904;28;20024;-71
2021/10/03 08:50:18;;;;;;;5.70;3.97;;;18.40;59.00;;;;;;5063815;28;20060;-71
2021/10/03 08:52:45;;;;;;;6.45;4.15;;;18.50;58.60;;;;;;5045984;28;20021;-71
2021/10/03 08:55:12;;;;;;;6.13;4.28;;;18.50;57.60;;;;;;5046769;28;20020;-70
2021/10/03 08:57:38;;;;;;;5.97;3.97;;;18.60;57.40;;;;;;5079652;28;20335;-71
2021/10/03 09:00:17;;;;;;;6.53;4.07;;;18.60;57.40;;;;;;5064771;28;20021;-70
2021/10/03 09:02:57;;;;;;;5.65;3.80;;;18.70;57.90;;;;;;5063614;28;20220;-71
2021/10/03 09:05:24;;;;;;;6.57;4.18;;;18.80;56.90;;;;;;5064572;28;20308;-71
2021/10/03 09:08:17;;;;;;;6.63;4.10;;;18.80;58.70;;;;;;5063521;28;20350;-71
2021/10/03 09:11:01;;;;;;;4.82;3.50;;;18.90;57.30;;;;;;5057147;28;20037;-71
2021/10/03 09:13:33;;;;;;;6.93;4.22;;;19.00;55.90;;;;;;5064044;28;20028;-71
2021/10/03 09:16:24;;;;;;;7.97;4.22;;;18.80;56.80;;;;;;5064398;28;20127;-71
2021/10/03 09:18:55;;;;;;;6.07;4.00;;;18.80;58.30;;;;;;5079409;28;20025;-71
2021/10/03 09:21:30;;;;;;;6.28;4.00;;;18.90;56.50;;;;;;5064300;28;20106;-71
2021/10/03 09:24:06;;;;;;;5.82;3.47;;;18.80;56.30;;;;;;5064007;28;20013;-71
2021/10/03 09:26:33;;;;;;;6.15;3.80;;;18.90;56.80;;;;;;5062962;28;20021;-71
2021/10/03 09:29:01;;;;;;;6.82;4.35;;;18.90;55.40;;;;;;5046476;28;20230;-71
2021/10/03 09:31:27;;;;;;;9.95;7.00;;;18.80;56.30;;;;;;5030423;28;20037;-70
2021/10/03 09:33:58;;;;;;;5.80;3.90;;;18.90;57.10;;;;;;5063843;28;20085;-71
2021/10/03 09:36:29;;;;;;;9.73;6.10;;;18.90;56.60;;;;;;5048501;28;20323;-71
2021/10/03 09:39:09;;;;;;;5.75;3.75;;;18.90;57.40;;;;;;5042618;28;20323;-71
2021/10/03 09:41:41;;;;;;;4.88;3.50;;;19.00;56.80;;;;;;5042707;28;20212;-71
2021/10/03 09:44:10;;;;;;;7.45;4.13;;;19.00;55.90;;;;;;5059041;28;20324;-71
2021/10/03 09:46:45;;;;;;;5.45;3.60;;;19.10;57.00;;;;;;5016275;28;20021;-70
2021/10/03 09:49:26;;;;;;;6.68;3.58;;;19.10;56.20;;;;;;5062715;28;20224;-71
2021/10/03 09:51:52;;;;;;;4.88;3.22;;;19.20;56.00;;;;;;5063782;28;20025;-71
2021/10/03 09:54:19;;;;;;;4.63;3.07;;;19.20;56.00;;;;;;5063374;28;20230;-70
2021/10/03 09:56:45;;;;;;;5.28;3.50;;;19.20;55.50;;;;;;5062676;28;20020;-70
2021/10/03 09:59:11;;;;;;;5.53;3.95;;;19.30;55.90;;;;;;5045953;28;20226;-70
2021/10/03 10:01:44;;;;;;;8.65;4.65;;;19.20;55.80;;;;;;5063363;28;20025;-71
2021/10/03 10:04:11;;;;;;;7.97;5.13;;;19.30;54.70;;;;;;5062854;28;20013;-70
2021/10/03 10:06:36;;;;;;;;;;;19.30;55.10;;;;;;5062812;28;20021;-70
2021/10/03 10:09:29;;;;;;;7.45;4.57;;;19.40;56.30;;;;;;5078772;28;19912;-70
2021/10/03 10:12:15;;;;;;;4.85;3.47;;;19.50;55.40;;;;;;5043264;28;20041;-70
2021/10/03 10:14:47;;;;;;;5.65;3.40;;;19.70;56.30;;;;;;5061868;28;20323;-70
2021/10/03 10:17:36;;;;;;;4.57;3.53;;;19.90;54.90;;;;;;5065235;28;20031;-70
2021/10/03 10:20:26;;;;;;;6.43;3.85;;;19.80;54.90;;;;;;5066019;28;20032;-71
2021/10/03 10:23:01;;;;;;;7.30;4.93;;;20.40;54.90;;;;;;5059940;28;20074;-71
2021/10/03 10:25:52;;;;;;;6.53;4.22;;;20.50;54.00;;;;;;5065623;28;20029;-71
2021/10/03 10:28:28;;;;;;;4.82;3.50;;;20.60;52.80;;;;;;5065172;28;20021;-71
2021/10/03 10:31:08;;;;;;;4.28;3.50;;;20.80;52.60;;;;;;5078603;28;20033;-71
2021/10/03 10:33:53;;;;;;;4.63;3.38;;;21.00;65.50;;;;;;5062911;28;20220;-70
2021/10/03 10:36:23;;;;;;;7.13;3.92;;;21.20;60.80;;;;;;5063291;28;20095;-70
2021/10/03 10:39:07;;;;;;;5.13;3.35;;;21.40;59.00;;;;;;5078561;28;20084;-70
2021/10/03 10:41:42;;;;;;;4.93;3.42;;;21.60;54.10;;;;;;5062717;28;20028;-71
2021/10/03 10:44:34;;;;;;;4.35;3.55;;;21.60;50.10;;;;;;5062895;28;20025;-69
2021/10/03 10:47:07;;;;;;;4.43;3.63;;;21.40;50.90;;;;;;5061771;28;20216;-71
2021/10/03 10:49:39;;;;;;;5.85;3.65;;;21.40;52.20;;;;;;5062904;28;20024;-70
2021/10/03 10:52:17;;;;;;;5.63;3.60;;;21.40;52.00;;;;;;5062817;28;20024;-71
2021/10/03 10:55:05;;;;;;;3.88;3.05;;;21.60;51.30;;;;;;5077961;28;20246;-70
2021/10/03 10:57:32;;;;;;;4.53;3.28;;;21.90;51.00;;;;;;5061723;28;20353;-71
2021/10/03 11:00:22;;;;;;;4.60;3.05;;;22.10;50.40;;;;;;5061671;28;20017;-71
2021/10/03 11:03:01;;;;;;;3.88;2.70;;;22.20;51.10;;;;;;5062742;28;20013;-71
2021/10/03 11:05:47;;;;;;;4.82;2.95;;;22.40;51.30;;;;;;5062480;28;20017;-71
2021/10/03 11:08:20;;;;;;;5.07;3.42;;;22.80;51.90;;;;;;5062558;28;20031;-70
2021/10/03 11:11:02;;;;;;;5.70;3.45;;;23.20;49.40;;;;;;5045047;28;20381;-71
2021/10/03 11:13:51;;;;;;;5.50;3.70;;;23.60;48.30;;;;;;5062258;28;20051;-71
2021/10/03 11:16:36;;;;;;;5.10;3.70;;;24.40;46.40;;;;;;5062845;28;20023;-71
2021/10/03 11:19:14;;;;;;;5.15;2.83;;;24.80;46.30;;;;;;5066566;28;20040;-71
2021/10/03 11:21:42;;;;;;;6.78;4.78;;;24.90;46.20;;;;;;5065639;28;20062;-71
2021/10/03 11:24:17;;;;;;;8.75;4.88;;;24.70;46.20;;;;;;5066380;28;20017;-71
2021/10/03 11:26:46;;;;;;;5.97;3.35;;;24.20;46.40;;;;;;5064287;28;20047;-71
2021/10/03 11:29:12;;;;;;;6.00;3.97;;;23.80;47.20;;;;;;5066355;28;20347;-70
2021/10/03 11:31:47;;;;;;;4.28;3.10;;;23.50;47.70;;;;;;5064792;28;20041;-66
2021/10/03 11:34:41;;;;;;;4.22;3.20;;;23.40;50.00;;;;;;5066247;28;20032;-70
2021/10/03 11:37:12;;;;;;;5.57;3.00;;;23.30;49.00;;;;;;5048416;28;20028;-68
2021/10/03 11:39:50;;;;;;;5.00;3.42;;;23.30;55.40;;;;;;5066508;28;20037;-67
2021/10/03 11:42:42;;;;;;;4.72;3.40;;;23.30;47.90;;;;;;5066094;28;20032;-71
2021/10/03 11:45:11;;;;;;;3.80;2.97;;;24.50;47.90;;;;;;5064842;28;20024;-72
2021/10/03 11:47:49;;;;;;;4.88;3.00;;;25.10;46.50;;;;;;5066104;28;20044;-71
2021/10/03 11:50:23;;;;;;;3.90;2.70;;;25.30;45.70;;;;;;5031680;28;20097;-71
2021/10/03 11:52:53;;;;;;;4.03;2.88;;;25.40;44.40;;;;;;5066019;28;20017;-71
2021/10/03 11:55:21;;;;;;;3.78;2.65;;;26.10;40.90;;;;;;5064831;28;20027;-71
2021/10/03 11:57:48;;;;;;;3.42;2.70;;;26.80;39.60;;;;;;5064578;28;20323;-71
2021/10/03 12:00:17;;;;;;;4.15;2.67;;;27.40;40.20;;;;;;5065762;28;20345;-71
2021/10/03 12:02:49;;;;;;;3.63;2.65;;;27.80;40.20;;;;;;5065912;28;20027;-71
2021/10/03 12:05:26;;;;;;;3.20;2.63;;;27.80;40.10;;;;;;5064476;28;20025;-70
2021/10/03 12:08:09;;;;;;;3.72;2.83;;;28.10;39.50;;;;;;5065454;28;20024;-69
2021/10/03 12:11:00;;;;;;;4.18;2.63;;;27.70;39.20;;;;;;5065493;28;20025;-70
2021/10/03 12:13:30;;;;;;;3.05;2.70;;;27.10;39.50;;;;;;5065316;28;20056;-69
2021/10/03 12:16:02;;;;;;;2.97;2.47;;;26.40;42.10;;;;;;5065457;28;20024;-73
2021/10/03 12:18:28;;;;;;;3.40;2.80;;;26.00;43.30;;;;;;5053866;28;20377;-71
2021/10/03 12:21:00;;;;;;;4.07;2.70;;;25.60;44.20;;;;;;5061532;28;20021;-74
2021/10/03 12:23:46;;;;;;;5.43;2.90;;;25.40;44.70;;;;;;5064898;28;20024;-70
2021/10/03 12:26:27;;;;;;;4.10;2.95;;;25.30;43.00;;;;;;5064700;28;20033;-71
2021/10/03 12:29:05;;;;;;;3.58;2.92;;;25.20;43.40;;;;;;5071109;22;20099;-78
2021/10/03 12:31:47;;;;;;;9.45;6.07;;;24.80;43.70;;;;;;5024883;28;20278;-75
2021/10/03 12:34:15;;;;;;;12.82;8.68;;;24.80;44.20;;;;;;5024973;28;20018;-76
2021/10/03 12:36:54;;;;;;;4.22;3.15;;;24.70;45.00;;;;;;5025424;28;20049;-80
2021/10/03 12:39:31;;;;;;;4.75;3.20;;;24.60;45.30;;;;;;5027340;28;20042;-80
2021/10/03 12:42:04;;;;;;;4.82;3.05;;;24.50;46.50;;;;;;5011825;28;20040;-78
2021/10/03 12:44:33;;;;;;;3.38;2.75;;;24.20;47.60;;;;;;4994963;28;20021;-81
2021/10/03 12:46:59;;;;;;;4.40;3.10;;;24.20;48.10;;;;;;5010153;28;20342;-77
2021/10/03 12:49:25;;;;;;;4.15;2.92;;;24.20;48.30;;;;;;5024220;28;20049;-74
2021/10/03 12:51:51;;;;;;;4.22;2.95;;;24.20;47.20;;;;;;5023614;28;20041;-72
2021/10/03 12:54:17;;;;;;;3.90;2.85;;;24.10;46.70;;;;;;5007139;28;20521;-73